createdAt,value
2022-09-20T00:00:02.899Z,98012.34
2022-09-20T00:05:04.306Z,98015.88
2022-09-20T00:10:05.646Z,98015.78
2022-09-20T00:15:06.874Z,98018.56
2022-09-20T00:20:08.289Z,98016.38
2022-09-20T00:25:09.559Z,98015.84
2022-09-20T00:30:10.814Z,98010.94
2022-09-20T00:35:12.042Z,98009.97
2022-09-20T00:40:13.328Z,98018.19
2022-09-20T00:45:14.583Z,98005.00
2022-09-20T00:50:15.864Z,98000.31
2022-09-20T00:55:17.110Z,97997.03
2022-09-20T01:00:18.330Z,98002.91
2022-09-20T01:05:19.531Z,97997.25
2022-09-20T01:10:20.745Z,98005.66
2022-09-20T01:15:23.250Z,98004.53
2022-09-20T01:20:24.533Z,98002.22
2022-09-20T01:25:25.765Z,98004.28
2022-09-20T01:30:27.099Z,98002.78
2022-09-20T01:35:28.784Z,98004.88
2022-09-20T01:40:30.095Z,98001.53
2022-09-20T01:45:31.511Z,98002.19
2022-09-20T01:50:32.864Z,98003.34
2022-09-20T01:55:34.093Z,97993.06
2022-09-20T02:00:36.381Z,97996.19
2022-09-20T02:05:37.623Z,97993.34
2022-09-20T02:10:38.897Z,97995.66
2022-09-20T02:15:41.985Z,97985.19
2022-09-20T02:20:43.320Z,97991.94
2022-09-20T02:25:44.583Z,97993.88
2022-09-20T02:30:45.814Z,97994.09
2022-09-20T02:35:47.047Z,98000.34
2022-09-20T02:40:48.290Z,97989.16
2022-09-20T02:45:49.613Z,97987.16
2022-09-20T02:50:50.927Z,97991.81
2022-09-20T02:55:52.215Z,97978.81
2022-09-20T03:00:54.040Z,97989.75
2022-09-20T03:05:55.378Z,97991.03
2022-09-20T03:10:56.665Z,97990.28
2022-09-20T03:15:57.967Z,97994.41
2022-09-20T03:20:59.519Z,97995.53
2022-09-20T03:26:00.745Z,97993.09
2022-09-20T03:31:02.075Z,98000.59
2022-09-20T03:36:03.379Z,98002.72
2022-09-20T03:41:04.659Z,98000.00
2022-09-20T03:46:06.029Z,97999.41
2022-09-20T03:51:07.437Z,97997.66
2022-09-20T03:56:09.155Z,97999.50
2022-09-20T04:01:10.466Z,98010.59
2022-09-20T04:06:11.737Z,98021.56
2022-09-20T04:11:13.587Z,98014.81
2022-09-20T04:16:14.982Z,98021.81
2022-09-20T04:21:17.092Z,98022.00
2022-09-20T04:26:18.370Z,98040.47
2022-09-20T04:31:20.925Z,98050.31
2022-09-20T04:36:31.571Z,98059.94
2022-09-20T04:41:34.473Z,98059.72
2022-09-20T04:46:35.829Z,98055.84
2022-09-20T04:51:37.069Z,98056.72
2022-09-20T04:56:38.325Z,98057.31
2022-09-20T05:01:39.864Z,98060.03
2022-09-20T05:06:41.175Z,98055.84
2022-09-20T05:11:46.983Z,98050.81
2022-09-20T05:16:48.233Z,98051.16
2022-09-20T05:21:50.086Z,98062.25
2022-09-20T05:26:51.336Z,98064.53
2022-09-20T05:31:52.638Z,98071.22
2022-09-20T05:36:54.730Z,98073.47
2022-09-20T05:41:56.074Z,98086.81
2022-09-20T05:46:57.318Z,98089.53
2022-09-20T05:51:58.581Z,98096.94
2022-09-20T05:56:59.790Z,98096.81
2022-09-20T06:02:01.073Z,98099.53
2022-09-20T06:07:02.351Z,98098.66
2022-09-20T06:12:03.590Z,98095.09
2022-09-20T06:17:04.823Z,98093.63
2022-09-20T06:22:06.058Z,98091.06
2022-09-20T06:27:08.631Z,98089.31
2022-09-20T06:32:10.995Z,98101.28
2022-09-20T06:37:30.984Z,98094.84
2022-09-20T06:42:32.250Z,98104.94
2022-09-20T06:47:38.023Z,98110.69
2022-09-20T06:52:39.993Z,98106.34
2022-09-20T06:57:41.239Z,98102.34
2022-09-20T07:02:43.213Z,98109.31
2022-09-20T07:07:44.847Z,98106.34
2022-09-20T07:12:46.781Z,98104.91
2022-09-20T07:17:49.447Z,98098.38
2022-09-20T07:22:50.778Z,98101.03
2022-09-20T07:27:52.128Z,98095.84
2022-09-20T07:32:53.647Z,98097.16
2022-09-20T07:37:54.897Z,98092.97
2022-09-20T07:42:56.379Z,98088.28
2022-09-20T07:47:58.150Z,98101.47
2022-09-20T07:52:59.436Z,98099.13
2022-09-20T07:58:00.738Z,98092.50
2022-09-20T08:03:02.221Z,98103.34
2022-09-20T08:08:03.473Z,98106.44
2022-09-20T08:18:28.203Z,98100.50
2022-09-20T08:23:29.462Z,98108.84
2022-09-20T08:28:31.511Z,98101.63
2022-09-20T08:33:32.815Z,98098.00
2022-09-20T08:43:56.232Z,98083.09
2022-09-20T08:48:57.631Z,98087.22
2022-09-20T08:53:58.885Z,98083.91
2022-09-20T08:59:00.245Z,98083.44
2022-09-20T09:04:01.504Z,98071.78
2022-09-20T09:09:02.855Z,98059.03
2022-09-20T09:14:04.730Z,98052.84
2022-09-20T09:19:06.133Z,98062.50
2022-09-20T09:24:09.799Z,98047.09
2022-09-20T09:29:11.127Z,98041.84
2022-09-20T09:34:12.524Z,98036.16
2022-09-20T09:39:13.760Z,98031.00
2022-09-20T09:44:15.610Z,98015.56
2022-09-20T09:49:17.192Z,98012.63
2022-09-20T09:54:19.775Z,97995.81
2022-09-20T09:59:21.055Z,97992.25
2022-09-20T10:04:22.372Z,97995.28
2022-09-20T10:09:23.638Z,97990.50
2022-09-20T10:14:24.861Z,97989.50
2022-09-20T10:19:26.104Z,97984.03
2022-09-20T10:24:31.017Z,97987.78
2022-09-20T10:29:32.506Z,97987.91
2022-09-20T10:34:35.459Z,97996.97
2022-09-20T10:39:36.787Z,98005.44
2022-09-20T10:44:38.154Z,97993.41
2022-09-20T10:49:39.396Z,98000.81
2022-09-20T10:54:40.708Z,97999.72
2022-09-20T10:59:42.240Z,97993.50
2022-09-20T11:04:47.102Z,97989.34
2022-09-20T11:09:48.366Z,97981.78
2022-09-20T11:14:50.043Z,97980.84
2022-09-20T11:19:51.345Z,97968.03
2022-09-20T11:24:52.611Z,97980.44
2022-09-20T11:29:53.842Z,97973.88
2022-09-20T11:34:55.717Z,97965.69
2022-09-20T11:39:57.115Z,97948.63
2022-09-20T11:44:58.431Z,97937.31
2022-09-20T11:49:59.762Z,97957.09
2022-09-20T11:55:01.130Z,97960.47
2022-09-20T12:00:07.436Z,97968.34
2022-09-20T12:05:08.674Z,97977.09
2022-09-20T12:10:10.037Z,97988.41
2022-09-20T12:15:11.315Z,97994.41
2022-09-20T12:20:12.944Z,97977.44
2022-09-20T12:25:14.261Z,97980.91
2022-09-20T12:30:16.800Z,97971.47
2022-09-20T12:35:18.117Z,97960.94
2022-09-20T12:40:19.402Z,97964.75
2022-09-20T12:45:20.681Z,97946.63
2022-09-20T12:50:40.669Z,97931.94
2022-09-20T12:55:45.440Z,97932.81
2022-09-20T13:00:47.121Z,97924.31
2022-09-20T13:05:48.730Z,97921.00
2022-09-20T13:10:50.319Z,97920.41
2022-09-20T13:15:52.416Z,97924.16
2022-09-20T13:20:54.010Z,97956.25
2022-09-20T13:25:56.066Z,97969.88
2022-09-20T13:30:57.328Z,97985.38
2022-09-20T13:35:58.765Z,97990.59
2022-09-20T13:41:00.703Z,97991.28
2022-09-20T13:46:02.004Z,98007.13
2022-09-20T13:51:03.330Z,98006.72
2022-09-20T13:56:04.547Z,98006.44
2022-09-20T14:01:05.850Z,98011.09
2022-09-20T14:06:07.134Z,98011.19
2022-09-20T14:11:08.367Z,98002.47
2022-09-20T14:16:09.647Z,98007.00
2022-09-20T14:21:11.122Z,97972.66
2022-09-20T14:26:12.365Z,97961.91
2022-09-20T14:31:13.711Z,97957.84
2022-09-20T14:36:15.722Z,97936.59
2022-09-20T14:41:16.990Z,97933.28
2022-09-20T14:46:18.302Z,97922.53
2022-09-20T14:51:21.391Z,97920.59
2022-09-20T14:56:22.611Z,97916.97
2022-09-20T15:01:24.360Z,97936.19
2022-09-20T15:06:25.710Z,97931.97
2022-09-20T15:11:29.360Z,97916.31
2022-09-20T15:16:30.686Z,97936.00
2022-09-20T15:21:32.247Z,97937.22
2022-09-20T15:26:34.169Z,97931.16
2022-09-20T15:31:35.573Z,97934.13
2022-09-20T15:36:36.908Z,97956.25
2022-09-20T15:41:38.134Z,97966.28
2022-09-20T15:46:39.491Z,97972.69
2022-09-20T15:51:40.711Z,97991.59
2022-09-20T15:56:41.996Z,97990.50
2022-09-20T16:01:43.234Z,97998.19
2022-09-20T16:06:44.472Z,97985.72
2022-09-20T16:11:45.748Z,98000.19
2022-09-20T16:16:47.005Z,98010.59
2022-09-20T16:21:53.593Z,98018.44
2022-09-20T16:26:58.018Z,98028.41
2022-09-20T16:31:59.657Z,98036.94
2022-09-20T16:37:01.006Z,98048.09
2022-09-20T16:42:03.632Z,98060.47
2022-09-20T16:47:08.092Z,98068.41
2022-09-20T16:52:09.448Z,98086.66
2022-09-20T16:57:10.695Z,98099.56
2022-09-20T17:02:12.309Z,98095.56
2022-09-20T17:07:13.569Z,98119.31
2022-09-20T17:12:18.746Z,98135.78
2022-09-20T17:17:22.508Z,98152.25
2022-09-20T17:22:23.755Z,98161.91
2022-09-20T17:27:25.018Z,98168.78
2022-09-20T17:32:26.335Z,98183.72
2022-09-20T17:37:27.905Z,98193.56
2022-09-20T17:42:30.247Z,98205.31
2022-09-20T17:47:31.576Z,98208.09
2022-09-20T17:52:32.796Z,98220.41
2022-09-20T17:57:34.057Z,98230.19
2022-09-20T18:02:35.298Z,98239.88
2022-09-20T18:07:36.552Z,98249.47
2022-09-20T18:12:38.161Z,98249.78
2022-09-20T18:17:39.456Z,98261.72
2022-09-20T18:22:40.693Z,98260.00
2022-09-20T18:27:42.277Z,98274.78
2022-09-20T18:32:44.415Z,98276.22
2022-09-20T18:37:45.648Z,98286.88
2022-09-20T18:42:46.886Z,98307.53
2022-09-20T18:47:48.136Z,98304.00
2022-09-20T18:52:51.176Z,98305.66
2022-09-20T18:57:52.440Z,98309.41
2022-09-20T19:02:53.683Z,98319.75
2022-09-20T19:07:54.947Z,98323.03
2022-09-20T19:12:56.157Z,98318.72
2022-09-20T19:17:57.914Z,98321.88
2022-09-20T19:22:59.135Z,98323.09
2022-09-20T19:28:00.377Z,98326.00
2022-09-20T19:33:02.856Z,98332.47
2022-09-20T19:38:04.367Z,98341.59
2022-09-20T19:43:05.627Z,98341.31
2022-09-20T19:48:06.902Z,98343.91
2022-09-20T19:53:08.183Z,98352.56
2022-09-20T19:58:09.456Z,98370.47
2022-09-20T20:03:10.755Z,98356.09
2022-09-20T20:08:12.058Z,98371.91
2022-09-20T20:13:33.249Z,98381.75
2022-09-20T20:18:34.519Z,98387.56
2022-09-20T20:23:35.810Z,98385.00
2022-09-20T20:28:37.269Z,98393.38
2022-09-20T20:33:38.540Z,98382.59
2022-09-20T20:38:40.183Z,98385.91
2022-09-20T20:43:41.433Z,98393.19
2022-09-20T20:48:42.654Z,98395.69
2022-09-20T20:53:47.444Z,98401.59
2022-09-20T20:58:48.690Z,98399.31
2022-09-20T21:03:49.907Z,98405.72
2022-09-20T21:08:51.177Z,98394.78
2022-09-20T21:13:52.427Z,98393.59
2022-09-20T21:18:53.848Z,98394.63
2022-09-20T21:23:55.138Z,98401.59
2022-09-20T21:28:59.074Z,98396.56
2022-09-20T21:34:00.307Z,98411.25
2022-09-20T21:39:01.506Z,98414.16
2022-09-20T21:44:02.727Z,98421.94
2022-09-20T21:49:08.487Z,98419.84
2022-09-20T21:54:09.714Z,98427.75
2022-09-20T21:59:11.067Z,98430.72
2022-09-20T22:04:12.288Z,98428.97
2022-09-20T22:09:13.587Z,98422.97
2022-09-20T22:14:14.797Z,98429.78
2022-09-20T22:19:16.854Z,98432.75
2022-09-20T22:24:18.142Z,98442.53
2022-09-20T22:29:19.482Z,98440.06
2022-09-20T22:34:20.768Z,98440.03
2022-09-20T22:39:22.038Z,98451.56
2022-09-20T22:44:23.297Z,98449.81
2022-09-20T22:49:24.519Z,98448.75
2022-09-20T22:54:26.357Z,98451.91
2022-09-20T22:59:27.558Z,98446.00
2022-09-20T23:04:28.817Z,98450.16
2022-09-20T23:09:30.070Z,98452.09
2022-09-20T23:14:31.270Z,98445.38
2022-09-20T23:19:32.469Z,98447.72
2022-09-20T23:24:33.726Z,98449.41
2022-09-20T23:29:34.992Z,98453.06
2022-09-20T23:34:36.289Z,98455.34
2022-09-20T23:39:37.575Z,98455.78
2022-09-20T23:44:39.529Z,98452.75
2022-09-20T23:49:41.222Z,98454.47
2022-09-20T23:54:42.565Z,98449.94
2022-09-20T23:59:43.915Z,98451.16
